sensor_id;sensor_type;location;lat;lon;timestamp;P1;durP1;ratioP1;P2;durP2;ratioP2
49029;SDS011;43337;52.070;4.508;2023-11-18T00:00:33;19.60;;;8.30;;
49029;SDS011;43337;52.070;4.508;2023-11-18T00:03:01;19.90;;;8.77;;
49029;SDS011;43337;52.070;4.508;2023-11-18T00:05:27;20.52;;;8.63;;
49029;SDS011;43337;52.070;4.508;2023-11-18T00:07:52;21.40;;;8.00;;
49029;SDS011;43337;52.070;4.508;2023-11-18T00:10:17;19.52;;;9.35;;
49029;SDS011;43337;52.070;4.508;2023-11-18T00:12:46;17.92;;;8.32;;
49029;SDS011;43337;52.070;4.508;2023-11-18T00:15:13;19.45;;;7.57;;
49029;SDS011;43337;52.070;4.508;2023-11-18T00:17:40;18.92;;;9.27;;
49029;SDS011;43337;52.070;4.508;2023-11-18T00:20:08;23.08;;;8.15;;
49029;SDS011;43337;52.070;4.508;2023-11-18T00:22:40;19.05;;;8.27;;
49029;SDS011;43337;52.070;4.508;2023-11-18T00:27:40;19.15;;;7.88;;
49029;SDS011;43337;52.070;4.508;2023-11-18T00:30:06;18.10;;;8.43;;
49029;SDS011;43337;52.070;4.508;2023-11-18T00:32:33;23.42;;;8.85;;
49029;SDS011;43337;52.070;4.508;2023-11-18T00:35:00;19.77;;;8.93;;
49029;SDS011;43337;52.070;4.508;2023-11-18T00:37:25;19.00;;;8.93;;
49029;SDS011;43337;52.070;4.508;2023-11-18T00:39:52;20.80;;;8.63;;
49029;SDS011;43337;52.070;4.508;2023-11-18T00:42:19;27.95;;;9.38;;
49029;SDS011;43337;52.070;4.508;2023-11-18T00:44:44;16.30;;;8.10;;
49029;SDS011;43337;52.070;4.508;2023-11-18T00:47:10;18.80;;;8.50;;
49029;SDS011;43337;52.070;4.508;2023-11-18T00:49:35;25.05;;;9.13;;
49029;SDS011;43337;52.070;4.508;2023-11-18T00:52:01;19.85;;;8.07;;
49029;SDS011;43337;52.070;4.508;2023-11-18T00:54:26;20.33;;;8.52;;
49029;SDS011;43337;52.070;4.508;2023-11-18T00:56:52;25.60;;;10.18;;
49029;SDS011;43337;52.070;4.508;2023-11-18T00:59:17;24.73;;;10.02;;
49029;SDS011;43337;52.070;4.508;2023-11-18T01:01:43;22.73;;;9.27;;
49029;SDS011;43337;52.070;4.508;2023-11-18T01:04:08;21.33;;;9.48;;
49029;SDS011;43337;52.070;4.508;2023-11-18T01:06:34;22.60;;;10.27;;
49029;SDS011;43337;52.070;4.508;2023-11-18T01:08:59;27.30;;;10.63;;
49029;SDS011;43337;52.070;4.508;2023-11-18T01:11:25;18.73;;;9.02;;
49029;SDS011;43337;52.070;4.508;2023-11-18T01:13:58;22.55;;;9.25;;
49029;SDS011;43337;52.070;4.508;2023-11-18T01:16:23;23.42;;;9.50;;
49029;SDS011;43337;52.070;4.508;2023-11-18T01:18:49;22.88;;;10.05;;
49029;SDS011;43337;52.070;4.508;2023-11-18T01:21:15;23.05;;;10.63;;
49029;SDS011;43337;52.070;4.508;2023-11-18T01:23:42;25.00;;;10.63;;
49029;SDS011;43337;52.070;4.508;2023-11-18T01:26:07;23.75;;;10.85;;
49029;SDS011;43337;52.070;4.508;2023-11-18T01:28:34;27.67;;;9.93;;
49029;SDS011;43337;52.070;4.508;2023-11-18T01:31:07;28.63;;;11.05;;
49029;SDS011;43337;52.070;4.508;2023-11-18T01:33:36;28.45;;;10.30;;
49029;SDS011;43337;52.070;4.508;2023-11-18T01:36:06;24.23;;;9.95;;
49029;SDS011;43337;52.070;4.508;2023-11-18T01:38:33;21.80;;;10.82;;
49029;SDS011;43337;52.070;4.508;2023-11-18T01:40:59;21.38;;;9.43;;
49029;SDS011;43337;52.070;4.508;2023-11-18T01:43:25;22.17;;;9.23;;
49029;SDS011;43337;52.070;4.508;2023-11-18T01:45:51;21.05;;;9.75;;
49029;SDS011;43337;52.070;4.508;2023-11-18T01:48:18;23.73;;;10.82;;
49029;SDS011;43337;52.070;4.508;2023-11-18T01:50:44;24.90;;;9.68;;
49029;SDS011;43337;52.070;4.508;2023-11-18T01:53:13;22.20;;;9.85;;
49029;SDS011;43337;52.070;4.508;2023-11-18T01:55:42;22.67;;;9.50;;
49029;SDS011;43337;52.070;4.508;2023-11-18T01:58:07;26.58;;;9.88;;
49029;SDS011;43337;52.070;4.508;2023-11-18T02:00:36;20.65;;;9.70;;
49029;SDS011;43337;52.070;4.508;2023-11-18T02:03:05;22.17;;;9.02;;
49029;SDS011;43337;52.070;4.508;2023-11-18T02:05:31;20.13;;;9.20;;
49029;SDS011;43337;52.070;4.508;2023-11-18T02:08:00;21.60;;;8.73;;
49029;SDS011;43337;52.070;4.508;2023-11-18T02:10:29;24.23;;;8.88;;
49029;SDS011;43337;52.070;4.508;2023-11-18T02:13:03;17.58;;;8.80;;
49029;SDS011;43337;52.070;4.508;2023-11-18T02:15:33;27.70;;;9.27;;
49029;SDS011;43337;52.070;4.508;2023-11-18T02:18:03;22.05;;;8.75;;
49029;SDS011;43337;52.070;4.508;2023-11-18T02:20:34;21.73;;;9.25;;
49029;SDS011;43337;52.070;4.508;2023-11-18T02:23:01;19.67;;;9.43;;
49029;SDS011;43337;52.070;4.508;2023-11-18T02:25:29;20.20;;;9.13;;
49029;SDS011;43337;52.070;4.508;2023-11-18T02:27:58;20.63;;;9.15;;
49029;SDS011;43337;52.070;4.508;2023-11-18T02:30:23;26.17;;;9.93;;
49029;SDS011;43337;52.070;4.508;2023-11-18T02:35:57;23.43;;;9.80;;
49029;SDS011;43337;52.070;4.508;2023-11-18T02:38:30;26.30;;;9.73;;
49029;SDS011;43337;52.070;4.508;2023-11-18T02:41:04;21.10;;;9.18;;
49029;SDS011;43337;52.070;4.508;2023-11-18T02:43:35;26.58;;;9.75;;
49029;SDS011;43337;52.070;4.508;2023-11-18T02:46:04;23.42;;;8.98;;
49029;SDS011;43337;52.070;4.508;2023-11-18T02:48:32;23.85;;;9.27;;
49029;SDS011;43337;52.070;4.508;2023-11-18T02:50:58;25.92;;;9.10;;
49029;SDS011;43337;52.070;4.508;2023-11-18T02:53:24;19.83;;;8.80;;
49029;SDS011;43337;52.070;4.508;2023-11-18T02:55:50;23.50;;;9.73;;
49029;SDS011;43337;52.070;4.508;2023-11-18T02:58:19;20.42;;;8.98;;
49029;SDS011;43337;52.070;4.508;2023-11-18T03:00:45;20.02;;;9.13;;
49029;SDS011;43337;52.070;4.508;2023-11-18T03:03:10;23.35;;;9.20;;
49029;SDS011;43337;52.070;4.508;2023-11-18T03:05:36;24.23;;;9.07;;
49029;SDS011;43337;52.070;4.508;2023-11-18T03:08:02;23.77;;;9.48;;
49029;SDS011;43337;52.070;4.508;2023-11-18T03:10:31;22.15;;;10.32;;
49029;SDS011;43337;52.070;4.508;2023-11-18T03:13:02;22.60;;;9.13;;
49029;SDS011;43337;52.070;4.508;2023-11-18T03:15:30;19.80;;;8.70;;
49029;SDS011;43337;52.070;4.508;2023-11-18T03:17:56;18.60;;;9.07;;
49029;SDS011;43337;52.070;4.508;2023-11-18T03:20:27;19.65;;;9.02;;
49029;SDS011;43337;52.070;4.508;2023-11-18T03:22:55;25.67;;;9.70;;
49029;SDS011;43337;52.070;4.508;2023-11-18T03:25:25;21.73;;;9.45;;
49029;SDS011;43337;52.070;4.508;2023-11-18T03:27:50;27.33;;;10.25;;
49029;SDS011;43337;52.070;4.508;2023-11-18T03:30:19;26.08;;;10.65;;
49029;SDS011;43337;52.070;4.508;2023-11-18T03:32:45;23.63;;;10.55;;
49029;SDS011;43337;52.070;4.508;2023-11-18T03:35:10;27.65;;;10.63;;
49029;SDS011;43337;52.070;4.508;2023-11-18T03:37:36;20.05;;;9.70;;
49029;SDS011;43337;52.070;4.508;2023-11-18T03:40:09;19.92;;;9.43;;
49029;SDS011;43337;52.070;4.508;2023-11-18T03:42:36;20.52;;;8.88;;
49029;SDS011;43337;52.070;4.508;2023-11-18T03:45:05;23.98;;;9.65;;
49029;SDS011;43337;52.070;4.508;2023-11-18T03:47:31;23.92;;;8.68;;
49029;SDS011;43337;52.070;4.508;2023-11-18T03:49:56;22.02;;;9.90;;
49029;SDS011;43337;52.070;4.508;2023-11-18T03:52:22;18.67;;;8.40;;
49029;SDS011;43337;52.070;4.508;2023-11-18T03:54:48;19.23;;;8.40;;
49029;SDS011;43337;52.070;4.508;2023-11-18T03:57:17;21.38;;;8.10;;
49029;SDS011;43337;52.070;4.508;2023-11-18T03:59:42;22.45;;;7.95;;
49029;SDS011;43337;52.070;4.508;2023-11-18T04:02:11;19.98;;;8.02;;
49029;SDS011;43337;52.070;4.508;2023-11-18T04:04:40;17.27;;;7.47;;
49029;SDS011;43337;52.070;4.508;2023-11-18T04:07:05;16.50;;;7.10;;
49029;SDS011;43337;52.070;4.508;2023-11-18T04:09:31;17.52;;;8.05;;
49029;SDS011;43337;52.070;4.508;2023-11-18T04:11:57;16.58;;;7.22;;
49029;SDS011;43337;52.070;4.508;2023-11-18T04:14:23;17.58;;;7.80;;
49029;SDS011;43337;52.070;4.508;2023-11-18T04:16:50;16.88;;;7.70;;
49029;SDS011;43337;52.070;4.508;2023-11-18T04:19:16;25.77;;;9.05;;
49029;SDS011;43337;52.070;4.508;2023-11-18T04:21:42;22.05;;;8.25;;
49029;SDS011;43337;52.070;4.508;2023-11-18T04:24:13;16.27;;;7.95;;
49029;SDS011;43337;52.070;4.508;2023-11-18T04:26:41;21.38;;;8.80;;
49029;SDS011;43337;52.070;4.508;2023-11-18T04:29:08;16.73;;;8.35;;
49029;SDS011;43337;52.070;4.508;2023-11-18T04:31:34;24.17;;;9.35;;
49029;SDS011;43337;52.070;4.508;2023-11-18T04:34:02;23.38;;;9.93;;
49029;SDS011;43337;52.070;4.508;2023-11-18T04:36:27;21.23;;;9.27;;
49029;SDS011;43337;52.070;4.508;2023-11-18T04:38:54;23.55;;;9.57;;
49029;SDS011;43337;52.070;4.508;2023-11-18T04:41:19;17.88;;;8.85;;
49029;SDS011;43337;52.070;4.508;2023-11-18T04:43:45;18.55;;;8.68;;
49029;SDS011;43337;52.070;4.508;2023-11-18T04:46:12;21.77;;;9.13;;
49029;SDS011;43337;52.070;4.508;2023-11-18T04:48:37;23.85;;;9.90;;
49029;SDS011;43337;52.070;4.508;2023-11-18T04:51:04;22.15;;;9.20;;
49029;SDS011;43337;52.070;4.508;2023-11-18T04:53:30;23.77;;;9.00;;
49029;SDS011;43337;52.070;4.508;2023-11-18T04:55:56;22.98;;;9.30;;
49029;SDS011;43337;52.070;4.508;2023-11-18T04:58:23;19.55;;;9.30;;
49029;SDS011;43337;52.070;4.508;2023-11-18T05:00:50;20.80;;;9.50;;
49029;SDS011;43337;52.070;4.508;2023-11-18T05:03:16;20.50;;;9.10;;
49029;SDS011;43337;52.070;4.508;2023-11-18T05:05:42;16.27;;;7.95;;
49029;SDS011;43337;52.070;4.508;2023-11-18T05:08:17;16.95;;;8.93;;
49029;SDS011;43337;52.070;4.508;2023-11-18T05:10:49;17.83;;;8.65;;
49029;SDS011;43337;52.070;4.508;2023-11-18T05:13:15;15.73;;;8.27;;
49029;SDS011;43337;52.070;4.508;2023-11-18T05:15:42;23.38;;;9.68;;
49029;SDS011;43337;52.070;4.508;2023-11-18T05:18:12;15.95;;;8.85;;
49029;SDS011;43337;52.070;4.508;2023-11-18T05:20:40;22.60;;;8.95;;
49029;SDS011;43337;52.070;4.508;2023-11-18T05:23:06;25.55;;;8.68;;
49029;SDS011;43337;52.070;4.508;2023-11-18T05:25:34;17.67;;;7.80;;
49029;SDS011;43337;52.070;4.508;2023-11-18T05:28:00;20.17;;;9.18;;
49029;SDS011;43337;52.070;4.508;2023-11-18T05:30:29;18.45;;;8.45;;
49029;SDS011;43337;52.070;4.508;2023-11-18T05:32:56;20.10;;;9.00;;
49029;SDS011;43337;52.070;4.508;2023-11-18T05:35:23;20.90;;;8.57;;
49029;SDS011;43337;52.070;4.508;2023-11-18T05:37:53;17.67;;;7.82;;
49029;SDS011;43337;52.070;4.508;2023-11-18T05:40:19;17.65;;;8.23;;
49029;SDS011;43337;52.070;4.508;2023-11-18T05:42:45;15.38;;;7.22;;
49029;SDS011;43337;52.070;4.508;2023-11-18T05:45:13;36.88;;;7.82;;
49029;SDS011;43337;52.070;4.508;2023-11-18T05:47:52;20.65;;;8.05;;
49029;SDS011;43337;52.070;4.508;2023-11-18T05:50:18;17.75;;;8.40;;
49029;SDS011;43337;52.070;4.508;2023-11-18T05:52:45;17.50;;;7.55;;
49029;SDS011;43337;52.070;4.508;2023-11-18T05:55:11;29.15;;;8.85;;
49029;SDS011;43337;52.070;4.508;2023-11-18T05:57:36;20.77;;;8.65;;
49029;SDS011;43337;52.070;4.508;2023-11-18T06:00:01;20.48;;;9.02;;
49029;SDS011;43337;52.070;4.508;2023-11-18T06:02:30;16.67;;;8.63;;
49029;SDS011;43337;52.070;4.508;2023-11-18T06:04:55;19.75;;;8.13;;
49029;SDS011;43337;52.070;4.508;2023-11-18T06:07:24;16.30;;;8.38;;
49029;SDS011;43337;52.070;4.508;2023-11-18T06:09:49;17.35;;;8.20;;
49029;SDS011;43337;52.070;4.508;2023-11-18T06:12:17;16.40;;;7.40;;
49029;SDS011;43337;52.070;4.508;2023-11-18T06:14:42;19.58;;;8.40;;
49029;SDS011;43337;52.070;4.508;2023-11-18T06:17:09;15.10;;;7.25;;
49029;SDS011;43337;52.070;4.508;2023-11-18T06:19:38;23.58;;;7.85;;
49029;SDS011;43337;52.070;4.508;2023-11-18T06:22:03;16.67;;;7.20;;
49029;SDS011;43337;52.070;4.508;2023-11-18T06:24:30;17.00;;;6.72;;
49029;SDS011;43337;52.070;4.508;2023-11-18T06:26:56;21.90;;;8.18;;
49029;SDS011;43337;52.070;4.508;2023-11-18T06:29:22;14.30;;;6.30;;
49029;SDS011;43337;52.070;4.508;2023-11-18T06:31:48;16.35;;;7.20;;
49029;SDS011;43337;52.070;4.508;2023-11-18T06:34:14;16.85;;;6.95;;
49029;SDS011;43337;52.070;4.508;2023-11-18T06:36:43;19.15;;;7.50;;
49029;SDS011;43337;52.070;4.508;2023-11-18T06:39:08;18.25;;;7.38;;
49029;SDS011;43337;52.070;4.508;2023-11-18T06:41:33;19.38;;;6.60;;
49029;SDS011;43337;52.070;4.508;2023-11-18T06:44:01;16.52;;;6.38;;
49029;SDS011;43337;52.070;4.508;2023-11-18T06:46:34;22.70;;;7.07;;
49029;SDS011;43337;52.070;4.508;2023-11-18T06:49:02;19.27;;;7.03;;
49029;SDS011;43337;52.070;4.508;2023-11-18T06:51:40;16.10;;;6.72;;
49029;SDS011;43337;52.070;4.508;2023-11-18T06:54:06;21.75;;;7.65;;
49029;SDS011;43337;52.070;4.508;2023-11-18T06:56:38;19.40;;;7.03;;
49029;SDS011;43337;52.070;4.508;2023-11-18T06:59:07;14.65;;;6.85;;
49029;SDS011;43337;52.070;4.508;2023-11-18T07:01:35;19.42;;;7.43;;
49029;SDS011;43337;52.070;4.508;2023-11-18T07:04:01;14.65;;;6.50;;
49029;SDS011;43337;52.070;4.508;2023-11-18T07:06:27;20.15;;;7.70;;
49029;SDS011;43337;52.070;4.508;2023-11-18T07:08:53;19.80;;;7.05;;
49029;SDS011;43337;52.070;4.508;2023-11-18T07:11:20;16.27;;;6.95;;
49029;SDS011;43337;52.070;4.508;2023-11-18T07:13:46;16.77;;;6.40;;
49029;SDS011;43337;52.070;4.508;2023-11-18T07:16:12;18.63;;;5.97;;
49029;SDS011;43337;52.070;4.508;2023-11-18T07:18:39;23.17;;;8.50;;
49029;SDS011;43337;52.070;4.508;2023-11-18T07:21:08;15.07;;;5.82;;
49029;SDS011;43337;52.070;4.508;2023-11-18T07:23:34;17.50;;;6.03;;
49029;SDS011;43337;52.070;4.508;2023-11-18T07:26:00;23.73;;;6.63;;
49029;SDS011;43337;52.070;4.508;2023-11-18T07:28:26;18.75;;;5.75;;
49029;SDS011;43337;52.070;4.508;2023-11-18T07:30:52;20.10;;;7.50;;
49029;SDS011;43337;52.070;4.508;2023-11-18T07:33:20;17.83;;;6.38;;
49029;SDS011;43337;52.070;4.508;2023-11-18T07:35:46;16.25;;;5.78;;
49029;SDS011;43337;52.070;4.508;2023-11-18T07:38:15;16.00;;;5.80;;
49029;SDS011;43337;52.070;4.508;2023-11-18T07:40:41;15.38;;;6.13;;
49029;SDS011;43337;52.070;4.508;2023-11-18T07:43:10;19.27;;;7.10;;
49029;SDS011;43337;52.070;4.508;2023-11-18T07:45:39;14.02;;;6.03;;
49029;SDS011;43337;52.070;4.508;2023-11-18T07:48:07;17.52;;;5.95;;
49029;SDS011;43337;52.070;4.508;2023-11-18T07:50:34;12.00;;;4.53;;
49029;SDS011;43337;52.070;4.508;2023-11-18T07:53:00;12.57;;;5.13;;
49029;SDS011;43337;52.070;4.508;2023-11-18T07:55:26;15.85;;;5.57;;
49029;SDS011;43337;52.070;4.508;2023-11-18T07:58:02;15.20;;;5.63;;
49029;SDS011;43337;52.070;4.508;2023-11-18T08:00:35;14.48;;;6.18;;
49029;SDS011;43337;52.070;4.508;2023-11-18T08:03:09;16.50;;;5.38;;
49029;SDS011;43337;52.070;4.508;2023-11-18T08:05:41;13.50;;;5.40;;
49029;SDS011;43337;52.070;4.508;2023-11-18T08:08:09;20.52;;;5.93;;
49029;SDS011;43337;52.070;4.508;2023-11-18T08:10:39;17.60;;;5.60;;
49029;SDS011;43337;52.070;4.508;2023-11-18T08:13:07;16.20;;;5.35;;
49029;SDS011;43337;52.070;4.508;2023-11-18T08:15:38;13.35;;;5.15;;
49029;SDS011;43337;52.070;4.508;2023-11-18T08:18:07;15.25;;;5.50;;
49029;SDS011;43337;52.070;4.508;2023-11-18T08:20:35;15.60;;;5.13;;
49029;SDS011;43337;52.070;4.508;2023-11-18T08:23:04;14.32;;;5.53;;
49029;SDS011;43337;52.070;4.508;2023-11-18T08:25:30;15.50;;;5.20;;
49029;SDS011;43337;52.070;4.508;2023-11-18T08:27:58;15.00;;;6.22;;
49029;SDS011;43337;52.070;4.508;2023-11-18T08:30:25;18.40;;;5.50;;
49029;SDS011;43337;52.070;4.508;2023-11-18T08:32:51;11.85;;;4.85;;
49029;SDS011;43337;52.070;4.508;2023-11-18T08:35:17;21.80;;;6.43;;
49029;SDS011;43337;52.070;4.508;2023-11-18T08:37:50;18.00;;;6.88;;
49029;SDS011;43337;52.070;4.508;2023-11-18T08:40:16;14.95;;;5.40;;
49029;SDS011;43337;52.070;4.508;2023-11-18T08:42:47;16.75;;;5.07;;
49029;SDS011;43337;52.070;4.508;2023-11-18T08:47:45;13.18;;;5.43;;
49029;SDS011;43337;52.070;4.508;2023-11-18T08:50:15;17.70;;;5.38;;
49029;SDS011;43337;52.070;4.508;2023-11-18T08:52:42;15.10;;;6.18;;
49029;SDS011;43337;52.070;4.508;2023-11-18T08:55:15;15.75;;;4.47;;
49029;SDS011;43337;52.070;4.508;2023-11-18T08:57:50;15.55;;;6.15;;
49029;SDS011;43337;52.070;4.508;2023-11-18T09:00:30;16.80;;;4.97;;
49029;SDS011;43337;52.070;4.508;2023-11-18T09:03:16;11.73;;;4.47;;
49029;SDS011;43337;52.070;4.508;2023-11-18T09:13:28;12.48;;;4.82;;
49029;SDS011;43337;52.070;4.508;2023-11-18T09:21:53;17.30;;;5.00;;
49029;SDS011;43337;52.070;4.508;2023-11-18T09:24:21;11.32;;;4.82;;
49029;SDS011;43337;52.070;4.508;2023-11-18T09:32:00;23.33;;;5.25;;
49029;SDS011;43337;52.070;4.508;2023-11-18T09:44:53;13.73;;;4.72;;
49029;SDS011;43337;52.070;4.508;2023-11-18T09:47:29;16.48;;;5.50;;
49029;SDS011;43337;52.070;4.508;2023-11-18T09:50:14;13.85;;;4.80;;
49029;SDS011;43337;52.070;4.508;2023-11-18T09:52:49;14.30;;;5.32;;
49029;SDS011;43337;52.070;4.508;2023-11-18T09:55:33;12.95;;;3.88;;
49029;SDS011;43337;52.070;4.508;2023-11-18T09:58:08;12.73;;;4.65;;
49029;SDS011;43337;52.070;4.508;2023-11-18T10:00:41;13.68;;;4.43;;
49029;SDS011;43337;52.070;4.508;2023-11-18T10:03:10;10.15;;;4.57;;
49029;SDS011;43337;52.070;4.508;2023-11-18T10:05:45;12.68;;;4.18;;
49029;SDS011;43337;52.070;4.508;2023-11-18T10:08:10;14.15;;;4.32;;
49029;SDS011;43337;52.070;4.508;2023-11-18T10:10:41;12.27;;;4.03;;
49029;SDS011;43337;52.070;4.508;2023-11-18T10:15:49;11.38;;;3.95;;
49029;SDS011;43337;52.070;4.508;2023-11-18T10:18:22;13.07;;;3.70;;
49029;SDS011;43337;52.070;4.508;2023-11-18T10:21:17;18.42;;;3.97;;
49029;SDS011;43337;52.070;4.508;2023-11-18T10:23:59;8.20;;;3.30;;
49029;SDS011;43337;52.070;4.508;2023-11-18T10:31:35;14.88;;;3.58;;
49029;SDS011;43337;52.070;4.508;2023-11-18T10:34:02;10.60;;;3.20;;
49029;SDS011;43337;52.070;4.508;2023-11-18T10:36:29;12.20;;;3.15;;
49029;SDS011;43337;52.070;4.508;2023-11-18T10:38:57;8.32;;;3.03;;
49029;SDS011;43337;52.070;4.508;2023-11-18T10:41:25;11.43;;;3.35;;
49029;SDS011;43337;52.070;4.508;2023-11-18T10:44:04;13.63;;;3.55;;
49029;SDS011;43337;52.070;4.508;2023-11-18T10:46:32;8.32;;;3.35;;
49029;SDS011;43337;52.070;4.508;2023-11-18T10:48:58;10.98;;;3.05;;
49029;SDS011;43337;52.070;4.508;2023-11-18T10:51:23;7.47;;;2.75;;
49029;SDS011;43337;52.070;4.508;2023-11-18T10:53:52;12.18;;;2.92;;
49029;SDS011;43337;52.070;4.508;2023-11-18T10:56:25;8.80;;;3.22;;
49029;SDS011;43337;52.070;4.508;2023-11-18T10:59:04;6.70;;;2.80;;
49029;SDS011;43337;52.070;4.508;2023-11-18T11:01:34;8.80;;;2.50;;
49029;SDS011;43337;52.070;4.508;2023-11-18T11:04:07;7.40;;;3.20;;
49029;SDS011;43337;52.070;4.508;2023-11-18T11:06:35;9.77;;;2.83;;
49029;SDS011;43337;52.070;4.508;2023-11-18T11:09:08;8.35;;;2.80;;
49029;SDS011;43337;52.070;4.508;2023-11-18T11:14:14;9.40;;;2.88;;
49029;SDS011;43337;52.070;4.508;2023-11-18T11:16:44;11.90;;;2.80;;
49029;SDS011;43337;52.070;4.508;2023-11-18T11:19:23;10.77;;;3.00;;
49029;SDS011;43337;52.070;4.508;2023-11-18T11:22:01;8.68;;;2.65;;
49029;SDS011;43337;52.070;4.508;2023-11-18T11:24:45;11.95;;;3.35;;
49029;SDS011;43337;52.070;4.508;2023-11-18T11:27:41;8.93;;;2.85;;
49029;SDS011;43337;52.070;4.508;2023-11-18T11:30:23;12.77;;;3.05;;
49029;SDS011;43337;52.070;4.508;2023-11-18T11:35:23;7.45;;;2.08;;
49029;SDS011;43337;52.070;4.508;2023-11-18T11:37:52;10.25;;;2.58;;
49029;SDS011;43337;52.070;4.508;2023-11-18T11:40:22;5.65;;;2.55;;
49029;SDS011;43337;52.070;4.508;2023-11-18T11:42:50;7.47;;;2.28;;
49029;SDS011;43337;52.070;4.508;2023-11-18T11:45:22;6.80;;;2.20;;
49029;SDS011;43337;52.070;4.508;2023-11-18T11:47:53;5.18;;;2.60;;
49029;SDS011;43337;52.070;4.508;2023-11-18T11:50:38;5.65;;;2.63;;
49029;SDS011;43337;52.070;4.508;2023-11-18T11:53:22;7.10;;;2.58;;
49029;SDS011;43337;52.070;4.508;2023-11-18T11:55:52;9.88;;;2.33;;
49029;SDS011;43337;52.070;4.508;2023-11-18T11:58:25;6.47;;;2.38;;
49029;SDS011;43337;52.070;4.508;2023-11-18T12:00:53;5.75;;;2.33;;
49029;SDS011;43337;52.070;4.508;2023-11-18T12:03:21;8.75;;;2.60;;
49029;SDS011;43337;52.070;4.508;2023-11-18T12:05:49;12.43;;;3.15;;
49029;SDS011;43337;52.070;4.508;2023-11-18T12:08:21;4.85;;;2.08;;
49029;SDS011;43337;52.070;4.508;2023-11-18T12:10:51;4.93;;;2.30;;
49029;SDS011;43337;52.070;4.508;2023-11-18T12:13:21;6.90;;;2.60;;
49029;SDS011;43337;52.070;4.508;2023-11-18T12:18:25;7.82;;;2.35;;
49029;SDS011;43337;52.070;4.508;2023-11-18T12:20:50;8.27;;;3.00;;
49029;SDS011;43337;52.070;4.508;2023-11-18T12:23:20;10.77;;;2.42;;
49029;SDS011;43337;52.070;4.508;2023-11-18T12:25:53;6.95;;;2.95;;
49029;SDS011;43337;52.070;4.508;2023-11-18T12:28:29;6.10;;;2.25;;
49029;SDS011;43337;52.070;4.508;2023-11-18T12:31:04;7.13;;;2.17;;
49029;SDS011;43337;52.070;4.508;2023-11-18T12:39:32;4.88;;;1.98;;
49029;SDS011;43337;52.070;4.508;2023-11-18T12:42:21;3.72;;;1.73;;
49029;SDS011;43337;52.070;4.508;2023-11-18T12:48:18;6.10;;;2.20;;
49029;SDS011;43337;52.070;4.508;2023-11-18T12:50:52;5.40;;;2.30;;
49029;SDS011;43337;52.070;4.508;2023-11-18T12:53:20;4.32;;;1.95;;
49029;SDS011;43337;52.070;4.508;2023-11-18T12:55:49;6.65;;;1.98;;
49029;SDS011;43337;52.070;4.508;2023-11-18T12:58:14;4.22;;;1.65;;
49029;SDS011;43337;52.070;4.508;2023-11-18T13:00:40;4.22;;;1.98;;
49029;SDS011;43337;52.070;4.508;2023-11-18T13:03:08;5.07;;;2.25;;
49029;SDS011;43337;52.070;4.508;2023-11-18T13:05:35;6.55;;;2.13;;
49029;SDS011;43337;52.070;4.508;2023-11-18T13:08:02;5.00;;;2.17;;
49029;SDS011;43337;52.070;4.508;2023-11-18T13:10:28;3.70;;;1.63;;
49029;SDS011;43337;52.070;4.508;2023-11-18T13:12:54;4.10;;;1.88;;
49029;SDS011;43337;52.070;4.508;2023-11-18T13:15:20;3.72;;;1.90;;
49029;SDS011;43337;52.070;4.508;2023-11-18T13:17:59;4.50;;;1.40;;
49029;SDS011;43337;52.070;4.508;2023-11-18T13:20:26;4.13;;;1.40;;
49029;SDS011;43337;52.070;4.508;2023-11-18T13:22:52;4.38;;;1.77;;
49029;SDS011;43337;52.070;4.508;2023-11-18T13:25:20;2.88;;;1.30;;
49029;SDS011;43337;52.070;4.508;2023-11-18T13:27:49;4.15;;;1.77;;
49029;SDS011;43337;52.070;4.508;2023-11-18T13:30:15;4.70;;;1.83;;
49029;SDS011;43337;52.070;4.508;2023-11-18T13:32:42;3.65;;;1.52;;
49029;SDS011;43337;52.070;4.508;2023-11-18T13:35:08;3.10;;;1.40;;
49029;SDS011;43337;52.070;4.508;2023-11-18T13:37:36;4.50;;;1.70;;
49029;SDS011;43337;52.070;4.508;2023-11-18T13:40:01;3.33;;;1.42;;
49029;SDS011;43337;52.070;4.508;2023-11-18T13:42:31;4.47;;;1.85;;
49029;SDS011;43337;52.070;4.508;2023-11-18T13:45:05;3.05;;;1.50;;
49029;SDS011;43337;52.070;4.508;2023-11-18T13:47:34;4.03;;;1.20;;
49029;SDS011;43337;52.070;4.508;2023-11-18T13:50:00;3.22;;;1.58;;
49029;SDS011;43337;52.070;4.508;2023-11-18T13:52:25;3.45;;;1.38;;
49029;SDS011;43337;52.070;4.508;2023-11-18T13:54:51;3.05;;;1.20;;
49029;SDS011;43337;52.070;4.508;2023-11-18T13:57:22;2.67;;;1.30;;
49029;SDS011;43337;52.070;4.508;2023-11-18T13:59:51;3.85;;;1.83;;
49029;SDS011;43337;52.070;4.508;2023-11-18T14:02:17;2.70;;;1.17;;
49029;SDS011;43337;52.070;4.508;2023-11-18T14:04:43;2.38;;;1.20;;
49029;SDS011;43337;52.070;4.508;2023-11-18T14:07:09;2.70;;;1.30;;
49029;SDS011;43337;52.070;4.508;2023-11-18T14:09:35;3.95;;;1.30;;
49029;SDS011;43337;52.070;4.508;2023-11-18T14:12:08;3.30;;;1.55;;
49029;SDS011;43337;52.070;4.508;2023-11-18T14:14:35;4.13;;;1.90;;
49029;SDS011;43337;52.070;4.508;2023-11-18T14:17:00;3.05;;;1.10;;
49029;SDS011;43337;52.070;4.508;2023-11-18T14:19:26;1.70;;;0.80;;
49029;SDS011;43337;52.070;4.508;2023-11-18T14:21:52;2.03;;;0.80;;
49029;SDS011;43337;52.070;4.508;2023-11-18T14:24:19;1.70;;;0.70;;
49029;SDS011;43337;52.070;4.508;2023-11-18T14:26:48;3.40;;;0.95;;
49029;SDS011;43337;52.070;4.508;2023-11-18T14:29:13;2.13;;;0.75;;
49029;SDS011;43337;52.070;4.508;2023-11-18T14:31:38;1.50;;;0.70;;
49029;SDS011;43337;52.070;4.508;2023-11-18T14:34:06;2.58;;;1.05;;
49029;SDS011;43337;52.070;4.508;2023-11-18T14:36:35;2.28;;;1.00;;
49029;SDS011;43337;52.070;4.508;2023-11-18T14:39:01;2.53;;;0.93;;
49029;SDS011;43337;52.070;4.508;2023-11-18T14:41:28;1.98;;;0.93;;
49029;SDS011;43337;52.070;4.508;2023-11-18T14:43:55;2.30;;;1.00;;
49029;SDS011;43337;52.070;4.508;2023-11-18T14:46:23;2.30;;;0.95;;
49029;SDS011;43337;52.070;4.508;2023-11-18T14:48:49;2.25;;;1.05;;
49029;SDS011;43337;52.070;4.508;2023-11-18T14:51:16;2.28;;;1.02;;
49029;SDS011;43337;52.070;4.508;2023-11-18T14:53:43;2.35;;;1.00;;
49029;SDS011;43337;52.070;4.508;2023-11-18T14:56:09;3.03;;;1.05;;
49029;SDS011;43337;52.070;4.508;2023-11-18T14:58:35;2.80;;;1.30;;
49029;SDS011;43337;52.070;4.508;2023-11-18T15:01:03;3.10;;;1.30;;
49029;SDS011;43337;52.070;4.508;2023-11-18T15:03:32;3.72;;;1.10;;
49029;SDS011;43337;52.070;4.508;2023-11-18T15:06:00;4.05;;;1.27;;
49029;SDS011;43337;52.070;4.508;2023-11-18T15:08:25;2.47;;;1.30;;
49029;SDS011;43337;52.070;4.508;2023-11-18T15:10:51;3.17;;;1.27;;
49029;SDS011;43337;52.070;4.508;2023-11-18T15:13:16;3.63;;;1.80;;
49029;SDS011;43337;52.070;4.508;2023-11-18T15:15:43;3.15;;;1.70;;
49029;SDS011;43337;52.070;4.508;2023-11-18T15:18:12;3.50;;;1.60;;
49029;SDS011;43337;52.070;4.508;2023-11-18T15:20:42;3.88;;;1.65;;
49029;SDS011;43337;52.070;4.508;2023-11-18T15:23:10;3.15;;;1.45;;
49029;SDS011;43337;52.070;4.508;2023-11-18T15:25:36;3.20;;;1.63;;
49029;SDS011;43337;52.070;4.508;2023-11-18T15:28:02;5.05;;;1.92;;
49029;SDS011;43337;52.070;4.508;2023-11-18T15:30:29;3.38;;;1.30;;
49029;SDS011;43337;52.070;4.508;2023-11-18T15:32:54;3.55;;;1.42;;
49029;SDS011;43337;52.070;4.508;2023-11-18T15:35:20;4.20;;;1.70;;
49029;SDS011;43337;52.070;4.508;2023-11-18T15:37:46;3.47;;;1.70;;
49029;SDS011;43337;52.070;4.508;2023-11-18T15:40:16;3.47;;;1.83;;
49029;SDS011;43337;52.070;4.508;2023-11-18T15:42:47;3.95;;;2.20;;
49029;SDS011;43337;52.070;4.508;2023-11-18T15:45:16;4.35;;;2.03;;
49029;SDS011;43337;52.070;4.508;2023-11-18T15:47:43;4.32;;;2.13;;